Time;durP1;ratioP1;P1;durP2;ratioP2;P2;SDS_P1;SDS_P2;PMS_P1;PMS_P2;Temp;Humidity;BMP_temperature;BMP_pressure;BME280_temperature;BME280_humidity;BME280_pressure;Samples;Min_cycle;Max_cycle;Signal;HPM_P1;HPM_P2
2022/08/05 00:00:23;;;;;;;9.57;9.27;;;25.50;99.90;;;;;;6210783;23;20199;-82
2022/08/05 00:02:52;;;;;;;9.50;9.20;;;25.50;99.90;;;;;;6204651;23;20207;-83
2022/08/05 00:05:21;;;;;;;9.50;9.20;;;25.40;99.90;;;;;;6202527;23;20219;-84
2022/08/05 00:07:52;;;;;;;9.60;9.30;;;25.40;99.90;;;;;;6202958;23;20198;-83
2022/08/05 00:10:21;;;;;;;9.60;9.30;;;25.40;99.90;;;;;;6201655;23;20227;-83
2022/08/05 00:12:50;;;;;;;9.88;9.57;;;25.40;99.90;;;;;;6200857;23;20250;-83
2022/08/05 00:15:22;;;;;;;9.70;9.40;;;25.30;99.90;;;;;;6200869;23;20199;-83
2022/08/05 00:17:50;;;;;;;9.48;9.18;;;25.30;99.90;;;;;;6200506;23;20191;-84
2022/08/05 00:20:18;;;;;;;9.50;9.20;;;25.20;99.90;;;;;;6200566;23;20230;-84
2022/08/05 00:22:47;;;;;;;9.60;9.30;;;25.10;99.90;;;;;;6200543;23;20223;-83
2022/08/05 00:25:17;;;;;;;9.40;9.10;;;25.00;99.90;;;;;;6199074;23;20230;-83
2022/08/05 00:27:47;;;;;;;9.20;8.95;;;25.00;99.90;;;;;;6198839;23;20191;-83
2022/08/05 00:30:16;;;;;;;9.50;9.20;;;25.00;99.90;;;;;;6198502;23;20234;-83
2022/08/05 00:32:55;;;;;;;9.60;9.30;;;24.90;99.90;;;;;;6198947;23;20231;-83
2022/08/05 00:35:24;;;;;;;9.60;9.30;;;24.90;99.90;;;;;;6198309;23;20199;-83
2022/08/05 00:37:54;;;;;;;9.50;9.20;;;24.90;99.90;;;;;;6198180;23;20226;-83
2022/08/05 00:40:23;;;;;;;9.60;9.30;;;24.90;99.90;;;;;;6198078;23;20242;-83
2022/08/05 00:42:53;;;;;;;9.60;9.30;;;24.90;99.90;;;;;;6198872;23;20199;-83
2022/08/05 00:45:22;;;;;;;9.35;9.05;;;24.90;99.90;;;;;;6197890;23;20200;-84
2022/08/05 00:47:53;;;;;;;9.40;9.10;;;24.90;99.90;;;;;;6198580;23;20226;-83
2022/08/05 00:50:21;;;;;;;9.40;9.10;;;24.80;99.90;;;;;;6198561;23;20662;-83
2022/08/05 00:52:51;;;;;;;9.30;9.00;;;24.80;99.90;;;;;;6200310;23;20207;-83
2022/08/05 00:55:23;;;;;;;9.40;9.10;;;24.70;99.90;;;;;;6199528;23;20215;-83
2022/08/05 00:57:51;;;;;;;9.30;9.00;;;24.70;99.90;;;;;;6200051;23;20207;-83
2022/08/05 01:00:20;;;;;;;9.25;8.95;;;24.70;99.90;;;;;;6216127;23;20180;-84
2022/08/05 01:02:49;;;;;;;9.50;9.20;;;24.70;99.90;;;;;;6220251;23;20188;-84
2022/08/05 01:05:27;;;;;;;9.48;9.18;;;24.60;99.90;;;;;;6199184;23;20192;-82
2022/08/05 01:07:57;;;;;;;9.30;9.00;;;24.60;99.90;;;;;;6199440;23;20242;-83
2022/08/05 01:10:33;;;;;;;9.38;9.07;;;24.50;99.90;;;;;;6199083;23;20238;-84
2022/08/05 01:13:14;;;;;;;9.45;9.15;;;24.50;99.90;;;;;;6200689;23;20227;-83
2022/08/05 01:15:53;;;;;;;9.50;9.20;;;24.50;99.90;;;;;;6199841;23;20219;-83
2022/08/05 01:18:30;;;;;;;9.55;9.25;;;24.50;99.90;;;;;;6198489;23;20187;-83
2022/08/05 01:21:38;;;;;;;9.57;9.27;;;24.50;99.90;;;;;;6198443;23;20226;-83
2022/08/05 01:24:31;;;;;;;9.50;9.20;;;24.40;99.90;;;;;;6199072;23;20224;-83
2022/08/05 01:27:09;;;;;;;9.40;9.10;;;24.40;99.90;;;;;;6199289;23;20230;-83
2022/08/05 01:29:47;;;;;;;9.48;9.18;;;24.40;99.90;;;;;;6199272;23;20251;-83
2022/08/05 01:32:25;;;;;;;9.30;9.00;;;24.30;99.90;;;;;;6198351;23;20206;-83
2022/08/05 01:35:03;;;;;;;9.15;8.90;;;24.30;99.90;;;;;;6198485;23;20258;-83
2022/08/05 01:37:41;;;;;;;9.43;9.13;;;24.30;99.90;;;;;;6198895;23;20192;-83
2022/08/05 01:40:11;;;;;;;9.50;9.20;;;24.30;99.90;;;;;;6198739;23;20191;-83
2022/08/05 01:42:41;;;;;;;9.80;9.50;;;24.30;99.90;;;;;;6199152;23;20195;-83
2022/08/05 01:45:19;;;;;;;9.45;9.15;;;24.20;99.90;;;;;;6198267;23;20231;-83
2022/08/05 01:47:48;;;;;;;9.20;8.90;;;24.20;99.90;;;;;;6205465;23;20247;-83
2022/08/05 01:50:26;;;;;;;9.43;9.13;;;24.20;99.90;;;;;;6206914;23;20251;-83
2022/08/05 01:52:58;;;;;;;9.50;9.20;;;24.10;99.90;;;;;;6201026;23;20188;-83
2022/08/05 01:55:34;;;;;;;9.43;9.13;;;24.10;99.90;;;;;;6200878;23;20223;-83
2022/08/05 01:58:04;;;;;;;9.45;9.15;;;24.10;99.90;;;;;;6200178;23;20199;-84
2022/08/05 02:00:42;;;;;;;9.65;9.35;;;24.10;99.90;;;;;;6202506;23;20227;-83
2022/08/05 02:03:20;;;;;;;9.60;9.30;;;24.10;99.90;;;;;;6202425;23;20195;-83
2022/08/05 02:05:49;;;;;;;9.90;9.60;;;24.00;99.90;;;;;;6201126;23;20191;-83
2022/08/05 02:08:19;;;;;;;9.60;9.30;;;24.00;99.90;;;;;;6203608;23;20259;-83
2022/08/05 02:10:51;;;;;;;9.63;9.32;;;24.00;99.90;;;;;;6204476;23;20199;-83
2022/08/05 02:13:29;;;;;;;9.90;9.60;;;23.90;99.90;;;;;;6214116;23;20227;-83
2022/08/05 02:16:05;;;;;;;9.70;9.40;;;23.90;99.90;;;;;;6213811;23;20196;-83
2022/08/05 02:18:44;;;;;;;9.60;9.30;;;23.90;99.90;;;;;;6214258;23;20218;-83
2022/08/05 02:21:21;;;;;;;9.63;9.32;;;23.80;99.90;;;;;;6209078;23;20199;-82
2022/08/05 02:23:52;;;;;;;9.73;9.43;;;23.80;99.90;;;;;;6212283;23;20203;-81
2022/08/05 02:26:30;;;;;;;9.70;9.40;;;23.80;99.90;;;;;;6216241;23;20193;-83
2022/08/05 02:28:59;;;;;;;9.60;9.30;;;23.70;99.90;;;;;;6217843;23;20188;-82
2022/08/05 02:31:37;;;;;;;9.70;9.40;;;23.60;99.90;;;;;;6217129;23;20192;-83
2022/08/05 02:34:10;;;;;;;9.57;9.27;;;23.50;99.90;;;;;;6216045;23;20188;-82
2022/08/05 02:36:44;;;;;;;9.80;9.50;;;23.40;99.90;;;;;;6216855;23;20191;-82
2022/08/05 02:39:13;;;;;;;9.68;9.38;;;23.40;99.90;;;;;;6214865;23;20255;-83
2022/08/05 02:41:44;;;;;;;9.60;9.30;;;23.30;99.90;;;;;;6216597;23;20215;-82
2022/08/05 02:44:12;;;;;;;9.73;9.43;;;23.30;99.90;;;;;;6217198;23;20199;-83
2022/08/05 02:46:51;;;;;;;9.70;9.40;;;23.30;99.90;;;;;;6216427;23;20183;-83
2022/08/05 02:49:20;;;;;;;9.48;9.18;;;23.30;99.90;;;;;;6215731;23;20263;-84
2022/08/05 02:51:50;;;;;;;9.90;9.60;;;23.30;99.90;;;;;;6217064;23;20187;-83
2022/08/05 02:54:19;;;;;;;9.77;9.48;;;23.30;99.90;;;;;;6217382;23;20187;-83
2022/08/05 02:56:50;;;;;;;9.50;9.20;;;23.20;99.90;;;;;;6217295;23;20195;-83
2022/08/05 02:59:20;;;;;;;9.38;9.07;;;23.20;99.90;;;;;;6201125;23;20191;-83
2022/08/05 03:01:59;;;;;;;9.10;8.90;;;23.10;99.90;;;;;;6201801;23;20207;-83
2022/08/05 03:04:27;;;;;;;9.32;9.02;;;23.10;99.90;;;;;;6198471;23;20194;-84
2022/08/05 03:06:57;;;;;;;9.02;8.82;;;23.00;99.90;;;;;;6200337;23;20210;-83
2022/08/05 03:09:27;;;;;;;9.05;8.85;;;23.00;99.90;;;;;;6203122;23;20283;-84
2022/08/05 03:11:56;;;;;;;9.23;8.93;;;22.90;99.90;;;;;;6202146;23;20195;-83
2022/08/05 03:14:25;;;;;;;9.45;9.15;;;22.90;99.90;;;;;;6198499;23;20196;-84
2022/08/05 03:17:07;;;;;;;9.50;9.20;;;22.90;99.90;;;;;;6199891;23;20196;-83
2022/08/05 03:19:34;;;;;;;9.55;9.25;;;22.70;99.90;;;;;;6198930;23;20196;-87
2022/08/05 03:22:02;;;;;;;9.38;9.07;;;22.70;99.90;;;;;;6206531;23;20262;-88
2022/08/05 03:24:32;;;;;;;9.50;9.20;;;22.80;99.90;;;;;;6217418;23;20195;-88
2022/08/05 03:27:02;;;;;;;10.60;10.30;;;22.80;99.90;;;;;;6218826;23;20186;-87
2022/08/05 03:29:31;;;;;;;10.73;10.43;;;22.90;99.90;;;;;;6206323;23;20196;-87
2022/08/05 03:32:09;;;;;;;10.80;10.50;;;23.00;99.90;;;;;;6199618;23;20207;-88
2022/08/05 03:34:38;;;;;;;11.10;10.80;;;23.00;99.90;;;;;;6199207;23;20191;-87
2022/08/05 03:37:08;;;;;;;11.13;10.82;;;23.00;99.90;;;;;;6198262;23;20196;-87
2022/08/05 03:39:37;;;;;;;11.10;10.80;;;23.10;99.90;;;;;;6198068;23;20202;-87
2022/08/05 03:42:07;;;;;;;11.02;10.73;;;23.10;99.90;;;;;;6198216;23;20251;-88
2022/08/05 03:44:36;;;;;;;11.43;11.13;;;23.10;99.90;;;;;;6197664;23;20196;-87
2022/08/05 03:49:52;;;;;;;11.40;11.10;;;23.20;99.90;;;;;;6200890;23;20182;-87
2022/08/05 03:52:31;;;;;;;11.30;11.00;;;23.20;99.90;;;;;;6215832;23;20231;-88
2022/08/05 03:55:03;;;;;;;11.00;10.70;;;23.30;99.90;;;;;;6203933;23;20253;-87
2022/08/05 03:57:33;;;;;;;11.07;10.77;;;23.30;99.90;;;;;;6199693;23;20202;-87
2022/08/05 04:00:08;;;;;;;10.77;10.48;;;23.40;99.90;;;;;;6199277;23;20279;-88
2022/08/05 04:02:46;;;;;;;11.40;11.00;;;23.40;99.90;;;;;;6199195;23;20218;-88
2022/08/05 04:05:15;;;;;;;10.90;10.60;;;23.40;99.90;;;;;;6197839;23;20191;-87
2022/08/05 04:07:45;;;;;;;10.90;10.60;;;23.40;99.90;;;;;;6198075;23;20692;-87
2022/08/05 04:10:14;;;;;;;10.88;10.57;;;23.30;99.90;;;;;;6198430;23;20199;-87
2022/08/05 04:12:44;;;;;;;10.85;10.55;;;23.30;99.90;;;;;;6198289;23;20211;-87
2022/08/05 04:15:14;;;;;;;10.90;10.60;;;23.30;99.90;;;;;;6197733;23;20200;-88
2022/08/05 04:17:52;;;;;;;10.80;10.50;;;23.20;99.90;;;;;;6198757;23;20206;-87
2022/08/05 04:20:22;;;;;;;10.82;10.52;;;23.30;99.90;;;;;;6198132;23;20192;-86
2022/08/05 04:22:51;;;;;;;10.70;10.40;;;23.30;99.90;;;;;;6199895;23;20203;-87
2022/08/05 04:25:20;;;;;;;11.10;10.80;;;23.30;99.90;;;;;;6198230;23;20202;-87
2022/08/05 04:27:50;;;;;;;10.90;10.60;;;23.30;99.90;;;;;;6198370;23;20199;-87
2022/08/05 04:30:19;;;;;;;11.10;10.80;;;23.30;99.90;;;;;;6198329;23;20223;-86
2022/08/05 04:32:57;;;;;;;11.10;10.80;;;23.30;99.90;;;;;;6198305;23;20211;-86
2022/08/05 04:35:26;;;;;;;10.90;10.60;;;23.30;99.90;;;;;;6197792;23;20199;-87
2022/08/05 04:37:56;;;;;;;10.90;10.60;;;23.20;99.90;;;;;;6198037;23;20199;-87
2022/08/05 04:40:25;;;;;;;11.30;11.00;;;23.30;99.90;;;;;;6197773;23;20200;-88
2022/08/05 04:42:53;;;;;;;10.95;10.65;;;23.20;99.90;;;;;;6218673;23;20230;-81
2022/08/05 04:45:25;;;;;;;11.20;10.90;;;23.30;99.90;;;;;;6227223;23;20194;-81
2022/08/05 04:48:05;;;;;;;10.90;10.60;;;23.30;99.90;;;;;;6228528;23;20201;-80
2022/08/05 04:50:42;;;;;;;11.20;10.90;;;23.30;99.90;;;;;;6228870;23;20222;-81
2022/08/05 04:53:11;;;;;;;10.98;10.68;;;23.30;99.90;;;;;;6229221;22;20210;-81
2022/08/05 04:55:41;;;;;;;10.90;10.60;;;23.40;99.90;;;;;;6227031;23;20191;-81
2022/08/05 04:58:11;;;;;;;10.90;10.60;;;23.40;99.90;;;;;;6228622;23;20187;-80
2022/08/05 05:00:40;;;;;;;10.90;10.60;;;23.50;99.90;;;;;;6231381;23;20245;-81
2022/08/05 05:05:57;;;;;;;10.90;10.60;;;23.60;99.90;;;;;;6235569;23;20250;-81
2022/08/05 05:08:26;;;;;;;10.82;10.52;;;23.60;99.90;;;;;;6231693;23;20187;-81
2022/08/05 05:10:55;;;;;;;10.85;10.55;;;23.60;99.90;;;;;;6230355;23;20206;-81
2022/08/05 05:13:25;;;;;;;11.10;10.80;;;23.60;99.90;;;;;;6230522;22;20207;-81
2022/08/05 05:16:39;;;;;;;11.13;10.82;;;23.70;99.90;;;;;;6231135;23;20217;-81
2022/08/05 05:19:27;;;;;;;10.75;10.45;;;23.70;99.90;;;;;;6230023;23;20230;-81
2022/08/05 05:21:55;;;;;;;11.15;10.85;;;23.70;99.90;;;;;;6230040;22;20202;-81
2022/08/05 05:24:25;;;;;;;11.18;10.88;;;23.70;99.90;;;;;;6228524;23;20270;-81
2022/08/05 05:26:58;;;;;;;11.27;10.98;;;23.70;99.90;;;;;;6229181;23;20195;-81
2022/08/05 05:29:25;;;;;;;11.18;10.88;;;23.70;99.90;;;;;;6230628;23;20199;-81
2022/08/05 05:31:54;;;;;;;11.25;10.95;;;23.70;99.90;;;;;;6243982;22;20195;-80
2022/08/05 05:34:25;;;;;;;11.05;10.75;;;23.70;99.90;;;;;;6238609;23;20198;-83
2022/08/05 05:36:53;;;;;;;10.80;10.50;;;23.80;99.90;;;;;;6232789;23;20191;-81
2022/08/05 05:39:21;;;;;;;11.00;10.70;;;23.90;99.90;;;;;;6232628;23;20207;-81
2022/08/05 05:41:50;;;;;;;11.05;10.75;;;23.90;99.90;;;;;;6231288;22;20257;-82
2022/08/05 05:44:20;;;;;;;11.00;10.70;;;24.00;99.90;;;;;;6231765;23;20210;-81
2022/08/05 05:46:49;;;;;;;10.85;10.55;;;24.10;99.90;;;;;;6240915;23;20222;-81
2022/08/05 05:49:19;;;;;;;10.77;10.48;;;24.20;99.90;;;;;;6241099;23;20237;-81
2022/08/05 05:54:36;;;;;;;11.10;10.80;;;24.40;99.90;;;;;;6231621;23;20193;-81
2022/08/05 05:57:04;;;;;;;11.38;11.07;;;24.60;99.90;;;;;;6230869;23;20201;-81
2022/08/05 05:59:34;;;;;;;11.25;10.95;;;24.70;99.90;;;;;;6232954;23;20187;-81
2022/08/05 06:02:03;;;;;;;10.90;10.60;;;24.80;99.90;;;;;;6232490;22;20210;-81
2022/08/05 06:04:33;;;;;;;11.00;10.70;;;25.00;99.90;;;;;;6231553;23;20234;-81
2022/08/05 06:09:49;;;;;;;11.20;10.90;;;25.30;99.90;;;;;;6231549;23;20198;-81
2022/08/05 06:12:18;;;;;;;11.00;10.70;;;25.40;99.90;;;;;;6231967;22;20207;-82
2022/08/05 06:14:48;;;;;;;10.90;10.60;;;25.40;99.90;;;;;;6231520;23;20199;-79
2022/08/05 06:17:19;;;;;;;11.10;10.80;;;25.40;99.90;;;;;;6233112;23;20199;-82
2022/08/05 06:19:50;;;;;;;11.55;11.15;;;25.40;99.90;;;;;;6231344;23;20199;-81
2022/08/05 06:22:35;;;;;;;11.57;11.18;;;25.40;99.90;;;;;;6230449;22;20207;-82
2022/08/05 06:25:06;;;;;;;11.65;11.25;;;25.30;99.90;;;;;;6229487;23;20205;-81
2022/08/05 06:27:34;;;;;;;11.30;11.00;;;25.30;99.90;;;;;;6230796;23;20226;-84
2022/08/05 06:30:17;;;;;;;11.52;11.13;;;25.20;99.90;;;;;;6228044;23;20286;-81
2022/08/05 06:32:44;;;;;;;11.70;11.30;;;25.10;99.90;;;;;;6226880;22;20199;-82
2022/08/05 06:35:59;;;;;;;11.90;11.50;;;25.00;99.90;;;;;;6226360;23;20375;-82
2022/08/05 06:42:28;;;;;;;11.60;11.20;;;25.00;99.90;;;;;;6221712;22;20214;-83
2022/08/05 07:02:20;;;;;;;11.25;10.95;;;24.60;99.90;;;;;;6146331;23;20212;-84
2022/08/05 07:04:48;;;;;;;11.15;10.85;;;24.80;99.90;;;;;;6161315;23;20208;-82
2022/08/05 07:07:18;;;;;;;11.32;11.02;;;25.00;99.90;;;;;;6166742;23;20204;-83
2022/08/05 07:09:55;;;;;;;11.27;10.98;;;25.20;99.90;;;;;;6258941;22;20209;-84
2022/08/05 07:18:01;;;;;;;11.50;11.20;;;25.60;99.90;;;;;;6262564;22;20182;-82
2022/08/05 07:28:09;;;;;;;11.30;11.00;;;25.90;99.90;;;;;;5922375;24;20210;-81
2022/08/05 07:30:46;;;;;;;11.43;11.13;;;26.10;99.90;;;;;;5926149;23;20199;-86
2022/08/05 07:33:50;;;;;;;10.45;10.15;;;26.30;99.90;;;;;;6026653;23;20211;-85
2022/08/05 07:55:09;;;;;;;11.55;11.15;;;27.20;99.90;;;;;;6110191;23;20259;-86
2022/08/05 08:05:30;;;;;;;11.55;11.15;;;27.60;99.90;;;;;;6230864;22;20207;-87
2022/08/05 08:07:58;;;;;;;11.82;11.43;;;27.50;99.90;;;;;;6231125;23;20234;-91
2022/08/05 08:10:39;;;;;;;11.45;11.15;;;27.30;99.90;;;;;;6230954;23;20199;-91
2022/08/05 08:13:07;;;;;;;11.70;11.30;;;27.40;99.90;;;;;;6229958;22;20206;-90
2022/08/05 08:15:35;;;;;;;11.60;11.20;;;27.50;99.90;;;;;;6230610;23;20202;-91
2022/08/05 08:18:50;;;;;;;11.30;11.00;;;27.60;99.90;;;;;;6230894;23;20199;-91
2022/08/05 08:24:26;;;;;;;11.70;11.30;;;27.60;99.90;;;;;;6189591;23;20218;-91
2022/08/05 08:27:01;;;;;;;11.50;11.10;;;27.60;99.90;;;;;;6201534;23;20219;-90
2022/08/05 08:29:35;;;;;;;11.38;11.07;;;27.70;99.90;;;;;;6200713;23;20187;-91
2022/08/05 08:32:02;;;;;;;11.38;11.07;;;27.90;99.90;;;;;;6199081;23;20210;-91
2022/08/05 08:40:23;;;;;;;11.27;10.98;;;28.10;99.90;;;;;;6204527;23;20238;-90
2022/08/05 08:43:07;;;;;;;11.75;11.35;;;28.20;99.90;;;;;;6206984;23;20188;-89
2022/08/05 08:45:39;;;;;;;11.70;11.30;;;28.10;99.90;;;;;;6210071;23;20195;-89
2022/08/05 08:48:08;;;;;;;11.63;11.23;;;28.00;99.90;;;;;;6209436;23;20188;-90
2022/08/05 08:50:39;;;;;;;11.82;11.43;;;28.20;99.90;;;;;;6201003;23;20200;-89
2022/08/05 08:53:09;;;;;;;11.80;11.40;;;28.40;99.90;;;;;;6199488;23;20228;-89
2022/08/05 08:55:46;;;;;;;11.68;11.27;;;28.80;99.90;;;;;;6198229;23;20192;-90
2022/08/05 08:58:25;;;;;;;11.70;11.30;;;29.10;99.90;;;;;;6197782;23;20192;-89
2022/08/05 09:01:12;;;;;;;11.60;11.20;;;29.40;99.90;;;;;;6197308;23;20197;-89
2022/08/05 09:04:07;;;;;;;11.60;11.20;;;29.30;99.90;;;;;;6198364;23;20210;-90
2022/08/05 09:06:35;;;;;;;11.65;11.25;;;29.00;99.90;;;;;;6197829;23;20226;-89
2022/08/05 09:11:52;;;;;;;11.35;11.00;;;28.90;99.90;;;;;;6198011;23;20705;-89
2022/08/05 09:14:31;;;;;;;11.23;10.93;;;28.90;99.90;;;;;;6198696;23;20211;-91
2022/08/05 09:17:03;;;;;;;11.52;11.13;;;28.80;99.90;;;;;;6199112;23;20270;-87
2022/08/05 09:20:23;;;;;;;11.50;11.10;;;28.60;99.90;;;;;;6205497;23;20278;-90
2022/08/05 09:26:16;;;;;;;11.60;11.20;;;29.20;99.90;;;;;;6197265;23;20202;-89
2022/08/05 09:32:41;;;;;;;11.25;10.95;;;29.50;99.90;;;;;;6196408;23;20215;-90
2022/08/05 09:35:50;;;;;;;;;;;;;;;;;;;;;
2022/08/05 09:41:26;;;;;;;11.50;11.10;;;30.20;99.90;;;;;;6197453;23;20246;-86
2022/08/05 09:48:30;;;;;;;11.40;11.10;;;30.60;99.90;;;;;;6059482;22;20211;-88
2022/08/05 09:51:42;;;;;;;11.68;11.27;;;31.40;99.90;;;;;;6191166;23;20172;-86
2022/08/05 09:54:14;;;;;;;11.57;11.18;;;31.40;99.90;;;;;;6161169;23;20185;-90
2022/08/05 09:59:30;;;;;;;11.45;11.15;;;31.30;99.90;;;;;;6220094;23;20179;-91
2022/08/05 10:01:59;;;;;;;11.70;11.30;;;31.30;99.90;;;;;;6221648;23;20183;-92
2022/08/05 10:05:07;;;;;;;11.60;11.20;;;31.70;99.90;;;;;;6220446;23;20211;-91
2022/08/05 10:08:00;;;;;;;11.50;11.20;;;31.30;99.90;;;;;;6210043;23;20258;-88
2022/08/05 10:10:49;;;;;;;11.48;11.18;;;31.00;99.90;;;;;;6216496;23;20188;-90
2022/08/05 10:21:22;;;;;;;11.23;10.93;;;31.50;99.90;;;;;;5997923;23;20192;-84
2022/08/05 10:23:51;;;;;;;11.43;11.13;;;31.70;99.90;;;;;;6069303;23;20209;-84
2022/08/05 10:26:18;;;;;;;11.32;11.02;;;32.00;99.90;;;;;;6172917;23;20263;-83
2022/08/05 10:28:48;;;;;;;11.40;11.10;;;32.00;99.90;;;;;;6212833;23;20207;-83
2022/08/05 10:31:17;;;;;;;11.70;11.30;;;32.10;99.90;;;;;;6212673;23;20202;-83
2022/08/05 10:33:46;;;;;;;11.70;11.30;;;32.00;99.90;;;;;;6203568;23;20215;-83
2022/08/05 10:36:33;;;;;;;11.25;10.95;;;31.80;99.90;;;;;;6199551;23;20191;-83
2022/08/05 10:39:06;;;;;;;11.40;11.10;;;31.80;99.90;;;;;;6198363;23;20195;-83
2022/08/05 10:41:42;;;;;;;11.35;11.05;;;32.10;99.90;;;;;;6199006;23;20203;-82
2022/08/05 10:44:13;;;;;;;11.45;11.15;;;32.40;99.90;;;;;;6195415;23;20246;-79
2022/08/05 10:46:46;;;;;;;11.57;11.18;;;32.90;99.90;;;;;;6197977;23;20195;-78
2022/08/05 10:49:14;;;;;;;11.63;11.23;;;33.40;99.90;;;;;;6194857;23;20226;-78
2022/08/05 10:51:48;;;;;;;11.70;11.30;;;33.60;99.90;;;;;;6196406;23;20227;-77
2022/08/05 10:54:17;;;;;;;11.35;11.05;;;34.10;99.90;;;;;;6194846;23;20239;-78
2022/08/05 10:56:47;;;;;;;11.90;11.50;;;34.40;99.90;;;;;;6197431;23;20203;-80
2022/08/05 10:59:19;;;;;;;11.52;11.18;;;34.50;99.90;;;;;;6206265;23;20203;-78
2022/08/05 11:01:46;;;;;;;11.93;11.52;;;34.80;99.90;;;;;;6214330;23;20180;-80
2022/08/05 11:04:16;;;;;;;11.82;11.43;;;35.00;99.90;;;;;;6217540;23;20191;-80
2022/08/05 11:07:10;;;;;;;11.63;11.25;;;35.30;99.90;;;;;;6217540;23;20235;-80
2022/08/05 11:09:44;;;;;;;11.70;11.30;;;34.90;99.90;;;;;;6216662;23;20203;-77
2022/08/05 11:12:44;;;;;;;11.68;11.27;;;34.50;99.90;;;;;;6219549;23;20190;-80
2022/08/05 11:15:22;;;;;;;11.88;11.48;;;34.80;99.90;;;;;;6218568;23;20213;-80
2022/08/05 11:17:52;;;;;;;11.95;11.55;;;35.20;99.90;;;;;;6220260;23;20180;-83
2022/08/05 11:20:40;;;;;;;12.10;11.70;;;35.30;99.90;;;;;;6219879;23;20182;-78
2022/08/05 11:23:36;;;;;;;12.15;11.75;;;35.50;99.90;;;;;;6217803;23;20191;-80
2022/08/05 11:26:07;;;;;;;11.90;11.50;;;35.90;99.90;;;;;;6218909;23;20187;-79
2022/08/05 11:28:47;;;;;;;11.88;11.48;;;35.80;99.90;;;;;;6217283;23;20183;-78
2022/08/05 11:31:31;;;;;;;11.63;11.23;;;36.00;99.90;;;;;;6215128;23;20192;-79
2022/08/05 11:34:09;;;;;;;11.43;11.13;;;35.70;99.90;;;;;;6214763;23;20215;-80
2022/08/05 11:36:46;;;;;;;11.25;10.95;;;35.90;99.90;;;;;;6216157;23;20262;-79
2022/08/05 11:39:51;;;;;;;11.10;10.80;;;35.70;99.90;;;;;;6215507;23;20183;-81
2022/08/05 11:42:25;;;;;;;11.25;10.95;;;35.50;99.90;;;;;;6216642;23;20211;-80
2022/08/05 11:45:02;;;;;;;11.20;10.90;;;35.70;99.90;;;;;;6216264;23;20206;-81
2022/08/05 11:47:30;;;;;;;11.10;10.80;;;36.00;99.90;;;;;;6215032;23;20201;-80
2022/08/05 11:49:59;;;;;;;11.23;10.93;;;36.20;99.90;;;;;;6211512;23;20180;-81
2022/08/05 11:52:28;;;;;;;11.10;10.80;;;36.30;99.90;;;;;;6210061;23;20199;-80
2022/08/05 11:54:58;;;;;;;11.40;11.10;;;36.90;99.90;;;;;;6209180;23;20219;-80
2022/08/05 11:57:30;;;;;;;11.52;11.23;;;37.00;99.90;;;;;;6207749;23;20233;-81
2022/08/05 11:59:58;;;;;;;11.27;10.98;;;36.70;99.90;;;;;;6205206;23;20272;-79
2022/08/05 12:02:28;;;;;;;11.25;10.95;;;36.20;99.90;;;;;;6208128;23;20207;-80
2022/08/05 12:04:57;;;;;;;11.20;10.90;;;35.90;99.90;;;;;;6206682;23;20215;-81
2022/08/05 12:07:25;;;;;;;11.30;11.00;;;35.60;99.90;;;;;;6206182;23;20199;-83
2022/08/05 12:09:54;;;;;;;11.90;11.50;;;35.50;99.90;;;;;;6201356;23;20380;-82
2022/08/05 12:12:28;;;;;;;11.30;11.00;;;35.80;99.90;;;;;;6203476;23;20274;-82
2022/08/05 12:14:57;;;;;;;11.15;10.85;;;36.20;99.90;;;;;;6202636;23;20192;-83
2022/08/05 12:17:26;;;;;;;11.10;10.80;;;36.60;99.90;;;;;;6204524;23;20195;-83
2022/08/05 12:19:58;;;;;;;11.20;10.90;;;36.70;99.80;;;;;;6202435;23;20200;-82
2022/08/05 12:22:31;;;;;;;11.05;10.75;;;37.10;99.80;;;;;;6201436;23;20199;-82
2022/08/05 12:25:01;;;;;;;11.13;10.82;;;36.70;99.00;;;;;;6201365;23;20195;-82
2022/08/05 12:27:32;;;;;;;11.20;10.90;;;36.70;99.70;;;;;;6200936;23;20199;-81
2022/08/05 12:30:02;;;;;;;11.20;10.90;;;37.00;99.00;;;;;;6200733;23;20186;-83
2022/08/05 12:32:40;;;;;;;11.07;10.77;;;37.30;99.40;;;;;;6200146;23;20199;-84
2022/08/05 12:35:09;;;;;;;11.30;11.00;;;37.60;99.00;;;;;;6199413;23;20211;-83
2022/08/05 12:37:37;;;;;;;11.25;10.95;;;37.70;99.10;;;;;;6200611;23;20215;-81
2022/08/05 12:40:10;;;;;;;10.90;10.60;;;37.60;97.70;;;;;;6200949;23;20279;-83
2022/08/05 12:42:42;;;;;;;11.38;11.07;;;37.60;97.60;;;;;;6200887;23;20215;-82
2022/08/05 12:45:13;;;;;;;11.52;11.23;;;37.10;98.00;;;;;;6200169;23;20198;-81
2022/08/05 12:47:41;;;;;;;11.25;10.95;;;37.30;98.60;;;;;;6201543;23;20207;-83
2022/08/05 12:50:14;;;;;;;11.43;11.13;;;37.40;97.70;;;;;;6201171;23;20203;-82
2022/08/05 12:52:42;;;;;;;11.82;11.43;;;37.70;97.50;;;;;;6201591;23;20207;-82
2022/08/05 12:55:22;;;;;;;11.45;11.15;;;37.70;97.00;;;;;;6201040;23;20258;-82
2022/08/05 12:57:55;;;;;;;11.32;11.02;;;37.40;97.70;;;;;;6201580;23;20195;-82
2022/08/05 13:00:28;;;;;;;11.35;11.05;;;37.70;96.60;;;;;;6201732;23;20282;-82
2022/08/05 13:02:56;;;;;;;11.65;11.27;;;37.80;97.20;;;;;;6200739;23;20213;-82
2022/08/05 13:05:26;;;;;;;11.45;11.15;;;38.10;97.00;;;;;;6200577;23;20246;-81
2022/08/05 13:07:58;;;;;;;11.43;11.13;;;38.30;96.20;;;;;;6199650;23;20283;-82
2022/08/05 13:10:25;;;;;;;11.65;11.25;;;38.30;96.00;;;;;;6200098;23;20187;-81
2022/08/05 13:12:57;;;;;;;11.40;11.07;;;38.30;96.10;;;;;;6197616;23;20263;-82
2022/08/05 13:15:32;;;;;;;11.73;11.32;;;38.50;95.60;;;;;;6198675;23;20211;-84
2022/08/05 13:18:00;;;;;;;11.55;11.15;;;38.50;95.30;;;;;;6199644;23;20191;-81
2022/08/05 13:20:35;;;;;;;11.50;11.10;;;38.20;95.50;;;;;;6199565;23;20238;-82
2022/08/05 13:23:03;;;;;;;11.35;11.05;;;38.10;95.80;;;;;;6199774;23;20234;-82
2022/08/05 13:25:31;;;;;;;11.70;11.30;;;37.80;95.90;;;;;;6200251;23;20203;-81
2022/08/05 13:28:03;;;;;;;11.63;11.23;;;37.90;96.50;;;;;;6199608;23;20227;-82
2022/08/05 13:30:30;;;;;;;11.68;11.27;;;38.10;95.60;;;;;;6198564;23;20282;-81
2022/08/05 13:32:58;;;;;;;11.45;11.10;;;38.30;95.50;;;;;;6199559;23;20226;-81
2022/08/05 13:35:26;;;;;;;11.30;11.00;;;38.60;95.60;;;;;;6199416;23;20211;-81
2022/08/05 13:37:54;;;;;;;11.65;11.25;;;38.70;95.00;;;;;;6198816;23;20201;-81
2022/08/05 13:40:21;;;;;;;11.25;10.95;;;38.70;95.30;;;;;;6199445;23;20238;-82
2022/08/05 13:42:49;;;;;;;11.25;10.95;;;38.30;95.00;;;;;;6199268;23;20215;-82
2022/08/05 13:45:19;;;;;;;11.57;11.18;;;38.00;95.60;;;;;;6198745;23;20191;-81
2022/08/05 13:47:46;;;;;;;11.27;10.98;;;38.10;94.80;;;;;;6200994;23;20202;-82
2022/08/05 13:50:14;;;;;;;11.23;10.93;;;37.40;95.20;;;;;;6200289;23;20207;-81
2022/08/05 13:52:41;;;;;;;11.15;10.85;;;37.00;95.70;;;;;;6199563;23;20262;-85
2022/08/05 13:55:09;;;;;;;11.07;10.77;;;37.10;96.20;;;;;;6199330;23;20207;-82
2022/08/05 13:57:37;;;;;;;11.07;10.77;;;37.70;95.90;;;;;;6198977;23;20390;-82
2022/08/05 14:00:07;;;;;;;11.52;11.13;;;38.00;95.00;;;;;;6199986;23;20210;-82
2022/08/05 14:02:39;;;;;;;11.57;11.18;;;38.30;96.00;;;;;;6200115;23;20239;-83
2022/08/05 14:05:10;;;;;;;11.77;11.38;;;38.50;94.90;;;;;;6199727;23;20195;-83
2022/08/05 14:07:41;;;;;;;11.65;11.25;;;38.70;94.40;;;;;;6199927;23;20255;-86
2022/08/05 14:10:12;;;;;;;11.25;10.95;;;38.10;94.10;;;;;;6201744;23;20199;-81
2022/08/05 14:12:41;;;;;;;11.55;11.15;;;37.60;94.50;;;;;;6208284;23;20210;-82
2022/08/05 14:15:12;;;;;;;11.43;11.07;;;37.60;94.40;;;;;;6204744;23;20203;-83
2022/08/05 14:17:45;;;;;;;11.38;11.07;;;37.70;94.60;;;;;;6205146;23;20202;-82
2022/08/05 14:20:14;;;;;;;11.35;11.05;;;38.20;94.80;;;;;;6206058;23;20258;-82
2022/08/05 14:22:42;;;;;;;11.43;11.13;;;38.20;93.90;;;;;;6205159;23;20218;-81
2022/08/05 14:25:12;;;;;;;11.35;11.05;;;38.20;95.40;;;;;;6205916;23;20192;-82
2022/08/05 14:27:39;;;;;;;11.13;10.82;;;38.70;94.30;;;;;;6207679;23;20227;-80
2022/08/05 14:30:09;;;;;;;11.20;10.90;;;38.70;93.60;;;;;;6211692;23;20199;-82
2022/08/05 14:32:39;;;;;;;11.18;10.88;;;38.70;93.80;;;;;;6214631;23;20209;-83
2022/08/05 14:35:17;;;;;;;11.00;10.70;;;38.90;93.60;;;;;;6212894;23;20205;-83
2022/08/05 14:37:46;;;;;;;11.20;10.90;;;39.00;93.60;;;;;;6209580;23;20187;-83
2022/08/05 14:40:15;;;;;;;11.45;11.13;;;39.30;93.60;;;;;;6211403;23;20206;-82
2022/08/05 14:42:45;;;;;;;11.70;11.30;;;39.40;92.90;;;;;;6214365;23;20210;-83
2022/08/05 14:45:13;;;;;;;11.18;10.88;;;39.10;92.90;;;;;;6208644;23;20206;-83
2022/08/05 14:47:45;;;;;;;11.30;11.00;;;39.20;93.00;;;;;;6204984;23;20226;-81
2022/08/05 14:50:14;;;;;;;11.35;11.05;;;39.10;93.10;;;;;;6207696;23;20202;-81
2022/08/05 14:52:43;;;;;;;11.13;10.82;;;38.40;92.40;;;;;;6205967;23;20233;-84